Time;durP1;ratioP1;P1;durP2;ratioP2;P2;SDS_P1;SDS_P2;PMS_P1;PMS_P2;Temp;Humidity;BMP_temperature;BMP_pressure;BME280_temperature;BME280_humidity;BME280_pressure;Samples;Min_cycle;Max_cycle;Signal;HPM_P1;HPM_P2
2022/11/07 00:02:05;;;;;;;9.20;5.70;;;10.80;99.90;;;;;;5038402;28;20036;-79
2022/11/07 00:04:32;;;;;;;11.52;5.80;;;11.00;99.90;;;;;;5071321;28;20075;-79
2022/11/07 00:06:58;;;;;;;10.13;5.57;;;11.00;99.90;;;;;;5054980;28;20040;-78
2022/11/07 00:09:24;;;;;;;10.10;5.45;;;11.00;99.90;;;;;;5054931;28;20047;-79
2022/11/07 00:11:50;;;;;;;13.63;5.38;;;10.90;99.90;;;;;;5055092;28;20475;-79
2022/11/07 00:14:17;;;;;;;10.25;6.40;;;10.90;99.90;;;;;;5055143;28;20040;-79
2022/11/07 00:16:44;;;;;;;11.25;6.32;;;10.90;99.90;;;;;;5073455;28;20070;-90
2022/11/07 00:19:13;;;;;;;8.88;5.53;;;10.80;99.90;;;;;;5056570;28;20048;-91
2022/11/07 00:21:39;;;;;;;8.57;5.25;;;10.80;99.90;;;;;;5056457;28;20048;-91
2022/11/07 00:24:06;;;;;;;9.80;6.10;;;10.90;99.90;;;;;;5073589;28;20673;-91
2022/11/07 00:26:32;;;;;;;13.32;6.53;;;10.90;99.90;;;;;;5056332;28;20028;-91
2022/11/07 00:28:58;;;;;;;10.60;6.53;;;10.90;99.90;;;;;;5056539;28;20059;-90
2022/11/07 00:31:24;;;;;;;11.20;5.63;;;10.90;99.90;;;;;;5056273;28;20059;-90
2022/11/07 00:33:50;;;;;;;10.15;6.20;;;11.00;99.90;;;;;;5056686;28;20066;-90
2022/11/07 00:36:27;;;;;;;7.80;5.57;;;11.00;99.90;;;;;;5073465;28;20652;-90
2022/11/07 00:38:53;;;;;;;;;;;11.00;99.90;;;;;;5071755;28;20059;-90
2022/11/07 00:41:19;;;;;;;11.80;5.03;;;11.00;99.90;;;;;;5072648;28;20033;-90
2022/11/07 00:43:45;;;;;;;;;;;11.00;99.90;;;;;;5072835;28;20028;-90
2022/11/07 00:46:12;;;;;;;9.88;4.88;;;11.00;99.90;;;;;;5056007;28;19939;-91
2022/11/07 00:48:38;;;;;;;8.80;4.63;;;11.00;99.90;;;;;;5053433;28;20040;-91
2022/11/07 00:51:09;;;;;;;14.63;5.72;;;11.10;99.90;;;;;;5072972;28;20098;-90
2022/11/07 00:53:36;;;;;;;8.75;5.30;;;11.10;99.90;;;;;;5056068;28;20067;-90
2022/11/07 00:56:04;;;;;;;12.13;5.45;;;11.10;99.90;;;;;;5072026;28;20040;-90
2022/11/07 00:58:29;;;;;;;13.13;5.78;;;11.10;99.90;;;;;;5073272;28;20036;-88
2022/11/07 01:00:55;;;;;;;12.13;4.87;;;11.10;99.90;;;;;;5040289;28;20040;-88
2022/11/07 01:06:05;;;;;;;9.27;5.28;;;11.10;99.90;;;;;;5059071;28;20044;-88
2022/11/07 01:08:31;;;;;;;12.85;5.43;;;11.00;99.90;;;;;;5053598;28;20037;-88
2022/11/07 01:10:58;;;;;;;9.95;4.90;;;11.00;99.90;;;;;;5056793;28;20041;-88
2022/11/07 01:13:24;;;;;;;7.68;4.75;;;11.10;99.90;;;;;;5073374;28;20047;-89
2022/11/07 01:15:50;;;;;;;7.68;5.57;;;11.10;99.90;;;;;;5073333;28;20165;-89
2022/11/07 01:18:16;;;;;;;11.73;4.75;;;11.10;99.90;;;;;;5072997;28;20123;-88
2022/11/07 01:20:42;;;;;;;10.52;4.43;;;11.10;99.90;;;;;;5039788;28;20059;-88
2022/11/07 01:23:08;;;;;;;10.88;4.90;;;11.10;99.90;;;;;;5073113;28;20033;-89
2022/11/07 01:25:38;;;;;;;13.35;4.93;;;11.10;99.90;;;;;;5072674;28;20480;-88
2022/11/07 01:28:05;;;;;;;8.95;4.38;;;11.20;99.90;;;;;;5072358;28;20051;-88
2022/11/07 01:30:30;;;;;;;8.57;5.07;;;11.20;99.90;;;;;;5072775;28;20111;-88
2022/11/07 01:32:56;;;;;;;8.70;4.43;;;11.20;99.90;;;;;;5055687;28;20153;-88
2022/11/07 01:35:22;;;;;;;9.05;4.90;;;11.20;99.90;;;;;;5072387;28;20446;-85
2022/11/07 01:37:47;;;;;;;10.40;5.33;;;11.20;99.90;;;;;;5071889;28;20040;-87
2022/11/07 01:40:13;;;;;;;14.50;5.50;;;11.20;99.90;;;;;;5071331;28;20286;-85
2022/11/07 01:42:39;;;;;;;11.93;5.45;;;11.20;99.90;;;;;;5054861;28;20493;-86
2022/11/07 01:45:06;;;;;;;11.70;4.55;;;11.10;99.90;;;;;;5054986;28;20036;-85
2022/11/07 01:47:37;;;;;;;9.20;4.97;;;11.20;99.90;;;;;;5071356;28;20111;-85
2022/11/07 01:50:05;;;;;;;9.27;4.45;;;11.10;99.90;;;;;;5071498;28;20711;-86
2022/11/07 01:52:37;;;;;;;10.13;4.97;;;11.10;99.90;;;;;;5071296;28;20107;-86
2022/11/07 01:55:08;;;;;;;12.00;5.60;;;11.20;99.90;;;;;;5071042;28;20032;-86
2022/11/07 01:57:38;;;;;;;10.75;4.80;;;11.20;99.90;;;;;;5070664;28;20039;-86
2022/11/07 02:00:08;;;;;;;11.52;4.95;;;11.20;99.90;;;;;;5054191;28;20048;-85
2022/11/07 02:02:34;;;;;;;7.32;4.18;;;11.10;99.90;;;;;;5053675;28;20067;-86
2022/11/07 02:05:02;;;;;;;7.63;3.80;;;11.20;99.90;;;;;;5070720;28;20510;-86
2022/11/07 02:07:28;;;;;;;7.80;4.20;;;11.20;99.90;;;;;;5054963;28;20421;-86
2022/11/07 02:09:54;;;;;;;10.63;4.55;;;11.20;99.90;;;;;;5071041;28;20046;-86
2022/11/07 02:12:23;;;;;;;8.48;4.70;;;11.20;99.90;;;;;;5071146;28;20036;-86
2022/11/07 02:14:49;;;;;;;12.30;4.43;;;11.20;99.90;;;;;;5052447;28;20092;-86
2022/11/07 02:17:16;;;;;;;10.32;3.85;;;11.20;99.90;;;;;;5054432;28;20035;-87
2022/11/07 02:19:47;;;;;;;7.88;3.80;;;11.20;99.90;;;;;;5054433;28;20041;-86
2022/11/07 02:22:26;;;;;;;7.18;3.78;;;11.30;99.90;;;;;;5070884;28;20040;-85
2022/11/07 02:24:56;;;;;;;7.28;3.05;;;11.20;99.90;;;;;;5054529;28;20057;-86
2022/11/07 02:27:26;;;;;;;6.78;3.33;;;11.20;99.90;;;;;;5054543;28;20047;-86
2022/11/07 02:29:56;;;;;;;6.00;2.85;;;11.30;99.90;;;;;;5071069;28;20490;-87
2022/11/07 02:32:22;;;;;;;10.95;3.58;;;11.30;99.90;;;;;;5071182;28;20052;-86
2022/11/07 02:34:58;;;;;;;8.00;4.00;;;11.20;99.90;;;;;;5054499;28;20411;-86
2022/11/07 02:37:30;;;;;;;9.15;3.97;;;11.20;99.90;;;;;;5055050;28;20063;-86
2022/11/07 02:39:57;;;;;;;5.97;3.13;;;11.20;99.90;;;;;;5071475;28;20060;-87
2022/11/07 02:42:24;;;;;;;7.53;3.22;;;11.20;99.90;;;;;;5055032;28;20211;-87
2022/11/07 02:44:52;;;;;;;8.60;3.38;;;11.30;99.90;;;;;;5054420;28;20044;-86
2022/11/07 02:47:18;;;;;;;12.93;3.90;;;11.30;99.90;;;;;;5054561;28;20032;-86
2022/11/07 02:49:44;;;;;;;12.93;4.53;;;11.20;99.90;;;;;;5038070;28;20381;-86
2022/11/07 02:52:09;;;;;;;9.07;3.67;;;11.20;99.90;;;;;;5054406;28;20372;-86
2022/11/07 02:54:35;;;;;;;7.72;3.40;;;11.10;99.90;;;;;;5054395;28;20036;-87
2022/11/07 02:57:01;;;;;;;11.00;4.03;;;11.20;99.90;;;;;;5054399;28;20400;-87
2022/11/07 02:59:26;;;;;;;8.90;3.33;;;11.20;99.90;;;;;;5071266;28;20511;-86
2022/11/07 03:01:52;;;;;;;10.70;3.70;;;11.20;99.90;;;;;;5054531;28;20107;-87
2022/11/07 03:04:18;;;;;;;8.93;3.10;;;11.10;99.90;;;;;;5071390;28;20082;-87
2022/11/07 03:06:43;;;;;;;8.50;3.20;;;11.20;99.90;;;;;;5054265;28;20407;-87
2022/11/07 03:09:09;;;;;;;9.63;3.20;;;11.10;99.90;;;;;;5070944;28;20510;-87
2022/11/07 03:11:35;;;;;;;8.63;2.50;;;11.00;99.90;;;;;;5071143;28;20059;-87
2022/11/07 03:14:00;;;;;;;8.60;2.80;;;11.00;99.90;;;;;;5054577;28;20329;-87
2022/11/07 03:16:26;;;;;;;9.43;3.40;;;11.10;99.90;;;;;;5037770;28;20035;-87
2022/11/07 03:18:52;;;;;;;6.07;2.80;;;11.00;99.90;;;;;;5054679;28;20314;-87
2022/11/07 03:21:18;;;;;;;5.43;3.27;;;11.10;99.90;;;;;;5054524;28;20040;-87
2022/11/07 03:23:44;;;;;;;6.85;2.83;;;11.00;99.90;;;;;;5053945;28;20294;-87
2022/11/07 03:26:09;;;;;;;7.93;3.33;;;11.00;99.90;;;;;;5037971;28;20048;-87
2022/11/07 03:28:35;;;;;;;10.80;3.40;;;11.00;99.90;;;;;;5071128;28;20278;-87
2022/11/07 03:31:03;;;;;;;13.27;3.43;;;10.90;99.90;;;;;;5054091;28;20090;-87
2022/11/07 03:33:29;;;;;;;8.93;3.75;;;11.00;99.90;;;;;;5073676;28;20052;-87
2022/11/07 03:35:55;;;;;;;12.20;3.50;;;11.00;99.90;;;;;;5057977;28;20048;-86
2022/11/07 03:38:21;;;;;;;12.60;3.78;;;11.00;99.90;;;;;;5074373;28;20094;-86
2022/11/07 03:40:47;;;;;;;9.55;3.17;;;11.00;99.90;;;;;;5057562;28;20515;-87
2022/11/07 03:43:12;;;;;;;6.20;2.95;;;10.90;99.90;;;;;;5073936;28;20488;-86
2022/11/07 03:45:38;;;;;;;12.18;2.67;;;10.90;99.90;;;;;;5073983;28;20044;-87
2022/11/07 03:48:04;;;;;;;9.55;2.80;;;10.90;99.90;;;;;;5074209;28;20037;-88
2022/11/07 03:50:30;;;;;;;10.00;3.38;;;10.90;99.90;;;;;;5024267;28;20039;-86
2022/11/07 03:52:55;;;;;;;6.90;3.27;;;10.90;99.90;;;;;;5073667;28;20044;-87
2022/11/07 03:55:21;;;;;;;8.67;3.20;;;11.00;99.90;;;;;;5073416;28;20500;-87
2022/11/07 03:57:47;;;;;;;10.17;3.10;;;11.00;99.90;;;;;;5040215;28;20408;-87
2022/11/07 04:00:14;;;;;;;8.05;2.28;;;10.90;99.90;;;;;;5041226;28;20679;-86
2022/11/07 04:02:41;;;;;;;7.57;2.60;;;10.90;99.90;;;;;;5057522;28;20511;-87
2022/11/07 04:05:07;;;;;;;8.43;3.47;;;10.90;99.90;;;;;;5041002;28;20045;-87
2022/11/07 04:07:33;;;;;;;;;;;11.00;99.90;;;;;;5057880;28;20036;-87
2022/11/07 04:09:59;;;;;;;12.73;3.30;;;11.00;99.90;;;;;;5057415;28;19917;-87
2022/11/07 04:17:54;;;;;;;7.03;2.80;;;10.80;99.90;;;;;;5071381;28;20117;-87
2022/11/07 04:20:20;;;;;;;9.77;3.17;;;10.90;99.90;;;;;;5057112;28;20040;-87
2022/11/07 04:22:45;;;;;;;8.13;2.75;;;10.80;99.90;;;;;;5057061;28;20392;-87
2022/11/07 04:25:11;;;;;;;10.77;3.03;;;10.80;99.90;;;;;;5073189;28;20090;-87
2022/11/07 04:27:43;;;;;;;11.00;2.95;;;10.70;99.90;;;;;;5073785;28;20059;-87
2022/11/07 04:30:17;;;;;;;9.25;2.83;;;10.70;99.90;;;;;;5057527;28;20076;-87
2022/11/07 04:32:48;;;;;;;12.48;3.17;;;10.60;99.90;;;;;;5073304;28;20539;-87
2022/11/07 04:35:14;;;;;;;8.25;3.20;;;10.70;99.90;;;;;;5056130;28;20076;-88
2022/11/07 04:37:41;;;;;;;;;;;10.80;99.90;;;;;;5073189;28;20029;-87
2022/11/07 04:40:10;;;;;;;11.15;3.55;;;10.70;99.90;;;;;;5039661;28;19926;-87
2022/11/07 04:42:36;;;;;;;8.63;3.33;;;10.70;99.90;;;;;;5072715;28;20033;-88
2022/11/07 04:45:02;;;;;;;7.32;2.92;;;11.00;99.90;;;;;;5071721;28;20058;-87
2022/11/07 04:47:28;;;;;;;8.40;2.50;;;10.80;99.90;;;;;;5056735;28;20353;-87
2022/11/07 04:49:53;;;;;;;10.27;3.37;;;10.90;99.90;;;;;;5073090;28;20082;-87
2022/11/07 04:52:19;;;;;;;7.17;3.50;;;10.90;99.90;;;;;;5056531;28;20287;-87
2022/11/07 04:54:45;;;;;;;8.90;3.35;;;10.80;99.90;;;;;;5039572;28;20051;-87
2022/11/07 04:57:10;;;;;;;10.30;3.60;;;10.90;99.90;;;;;;5055696;28;20037;-87
2022/11/07 04:59:36;;;;;;;11.30;4.15;;;10.80;99.90;;;;;;5072696;28;20572;-87
2022/11/07 05:02:02;;;;;;;10.47;3.73;;;10.80;99.90;;;;;;5055842;28;20032;-87
2022/11/07 05:04:28;;;;;;;13.07;3.70;;;10.90;99.90;;;;;;5036800;28;20071;-85
2022/11/07 05:06:53;;;;;;;9.63;3.55;;;10.80;99.90;;;;;;5055921;28;20078;-86
2022/11/07 05:09:19;;;;;;;11.65;4.10;;;10.80;99.90;;;;;;5072110;28;20041;-87
2022/11/07 05:11:46;;;;;;;11.65;4.32;;;10.60;99.90;;;;;;5056013;28;20040;-87
2022/11/07 05:14:12;;;;;;;11.73;4.07;;;10.70;99.90;;;;;;5071704;28;20093;-87
2022/11/07 05:16:41;;;;;;;8.45;3.75;;;10.70;99.90;;;;;;5054415;28;20086;-87
2022/11/07 05:19:07;;;;;;;11.88;3.75;;;10.70;99.90;;;;;;5071434;28;20055;-86
2022/11/07 05:21:32;;;;;;;11.73;4.10;;;10.70;99.90;;;;;;5055637;28;20396;-85
2022/11/07 05:23:58;;;;;;;7.30;3.40;;;10.70;99.90;;;;;;5072601;28;20036;-85
2022/11/07 05:26:24;;;;;;;12.37;4.20;;;10.60;99.90;;;;;;5072117;28;20044;-85
2022/11/07 05:28:49;;;;;;;8.07;2.80;;;10.70;99.90;;;;;;5071605;28;20286;-83
2022/11/07 05:31:16;;;;;;;9.23;3.90;;;10.70;99.90;;;;;;5037272;28;20150;-83
2022/11/07 05:33:42;;;;;;;7.82;4.03;;;10.70;99.90;;;;;;5053937;28;20055;-83
2022/11/07 05:36:15;;;;;;;13.55;4.00;;;10.70;99.90;;;;;;5053379;28;20109;-82
2022/11/07 05:38:43;;;;;;;9.23;3.92;;;10.60;99.90;;;;;;5055429;28;20032;-84
2022/11/07 05:41:10;;;;;;;13.60;3.53;;;10.60;99.90;;;;;;5070261;28;20104;-83
2022/11/07 05:43:37;;;;;;;12.98;4.63;;;10.80;99.90;;;;;;5070809;28;20028;-85
2022/11/07 05:46:03;;;;;;;10.07;3.83;;;10.60;99.90;;;;;;5055587;28;20388;-86
2022/11/07 05:48:29;;;;;;;13.52;4.55;;;10.60;99.90;;;;;;5055848;28;20043;-85
2022/11/07 05:50:56;;;;;;;8.05;3.58;;;10.70;99.90;;;;;;5055022;28;20033;-87
2022/11/07 05:53:24;;;;;;;8.38;4.35;;;10.70;99.90;;;;;;5068025;28;20605;-81
2022/11/07 05:55:51;;;;;;;13.13;4.50;;;10.70;99.90;;;;;;5054505;28;20161;-80
2022/11/07 05:58:17;;;;;;;9.45;4.53;;;10.90;99.90;;;;;;5071755;28;20033;-80
2022/11/07 06:00:43;;;;;;;8.43;4.85;;;10.80;99.90;;;;;;5072014;28;20511;-80
2022/11/07 06:03:09;;;;;;;14.23;4.65;;;10.80;99.90;;;;;;5071545;28;20041;-80
2022/11/07 06:05:39;;;;;;;13.30;4.70;;;10.70;99.90;;;;;;5054983;28;20070;-81
2022/11/07 06:08:07;;;;;;;14.57;5.03;;;10.70;99.90;;;;;;5071546;28;20403;-80
2022/11/07 06:10:32;;;;;;;12.70;5.07;;;10.70;99.90;;;;;;5054471;28;20072;-80
2022/11/07 06:13:00;;;;;;;15.07;5.77;;;10.70;99.90;;;;;;5071229;28;20076;-80
2022/11/07 06:15:27;;;;;;;19.80;5.43;;;10.70;99.90;;;;;;5054880;28;20283;-80
2022/11/07 06:17:53;;;;;;;9.27;4.82;;;10.80;99.90;;;;;;5071402;28;20051;-80
2022/11/07 06:20:20;;;;;;;14.50;6.07;;;10.80;99.90;;;;;;5071727;28;20457;-79
2022/11/07 06:22:45;;;;;;;14.48;5.63;;;10.80;99.90;;;;;;5054943;28;20036;-80
2022/11/07 06:25:11;;;;;;;8.90;4.40;;;10.80;99.90;;;;;;5038450;28;20527;-80
2022/11/07 06:27:37;;;;;;;13.15;5.10;;;10.90;99.90;;;;;;5071263;28;20294;-79
2022/11/07 06:30:03;;;;;;;8.83;5.07;;;10.80;99.90;;;;;;5071350;28;20501;-78
2022/11/07 06:32:29;;;;;;;20.63;5.75;;;10.70;99.90;;;;;;5054162;28;20053;-80
2022/11/07 06:34:55;;;;;;;12.23;5.38;;;10.70;99.90;;;;;;5071402;28;20527;-79
2022/11/07 06:37:21;;;;;;;10.05;4.57;;;10.60;99.90;;;;;;5070975;28;20032;-80
2022/11/07 06:39:46;;;;;;;12.45;5.03;;;10.60;99.90;;;;;;5071306;28;20127;-79
2022/11/07 06:42:12;;;;;;;15.60;5.57;;;10.70;99.90;;;;;;5071130;28;20072;-79
2022/11/07 06:44:37;;;;;;;13.47;4.50;;;10.70;99.90;;;;;;5054399;28;20044;-79
2022/11/07 06:47:03;;;;;;;11.33;4.83;;;10.70;99.90;;;;;;5070886;28;20040;-79
2022/11/07 06:49:29;;;;;;;7.40;3.65;;;10.60;99.90;;;;;;5071020;28;20040;-80
2022/11/07 06:51:54;;;;;;;9.67;4.77;;;10.60;99.90;;;;;;5054499;28;20076;-79
2022/11/07 06:54:20;;;;;;;10.77;3.67;;;10.60;99.90;;;;;;5070796;28;20040;-79
2022/11/07 06:56:46;;;;;;;13.98;4.25;;;10.60;99.90;;;;;;5054448;28;20048;-80
2022/11/07 06:59:11;;;;;;;9.43;3.83;;;10.60;99.90;;;;;;5071437;28;20048;-80
2022/11/07 07:01:37;;;;;;;8.20;3.85;;;10.60;99.90;;;;;;5071057;28;20036;-79
2022/11/07 07:04:04;;;;;;;9.17;4.13;;;10.60;99.90;;;;;;5071294;28;20127;-79
2022/11/07 07:06:29;;;;;;;10.60;3.58;;;10.50;99.90;;;;;;5070815;28;20048;-80
2022/11/07 07:08:56;;;;;;;9.33;4.27;;;10.50;99.90;;;;;;5075345;28;20044;-80
2022/11/07 07:11:22;;;;;;;6.45;2.50;;;10.50;99.90;;;;;;5074889;28;20048;-80
2022/11/07 07:13:47;;;;;;;9.60;3.40;;;10.60;99.90;;;;;;5057984;28;20550;-80
2022/11/07 07:16:13;;;;;;;11.27;3.42;;;10.60;99.90;;;;;;5074602;28;20049;-79
2022/11/07 07:18:39;;;;;;;12.20;4.20;;;10.70;99.90;;;;;;5074356;28;20036;-79
2022/11/07 07:21:10;;;;;;;8.97;4.17;;;10.60;99.90;;;;;;5074607;28;20410;-79
2022/11/07 07:23:37;;;;;;;12.27;4.00;;;10.60;99.90;;;;;;5074286;28;20048;-79
2022/11/07 07:26:14;;;;;;;11.27;4.40;;;10.70;99.90;;;;;;5074765;28;20094;-79
2022/11/07 07:28:40;;;;;;;18.77;4.93;;;10.70;99.90;;;;;;5068351;28;20032;-80
2022/11/07 07:31:08;;;;;;;13.05;5.63;;;10.80;99.90;;;;;;5075120;28;20536;-80
2022/11/07 07:33:34;;;;;;;15.10;5.20;;;10.70;99.90;;;;;;5074574;28;20508;-80
2022/11/07 07:36:00;;;;;;;14.35;5.32;;;10.70;99.90;;;;;;5074979;28;20041;-80
2022/11/07 07:38:26;;;;;;;15.38;6.07;;;10.70;99.90;;;;;;5074686;28;20354;-80
2022/11/07 07:40:51;;;;;;;11.87;5.20;;;10.70;99.90;;;;;;5041458;28;20036;-81
2022/11/07 07:43:17;;;;;;;16.00;6.87;;;10.70;99.90;;;;;;5074451;28;20283;-81
2022/11/07 07:45:43;;;;;;;21.80;7.67;;;10.70;99.90;;;;;;5074404;28;20097;-81
2022/11/07 07:48:08;;;;;;;14.40;6.43;;;10.70;99.90;;;;;;5074729;28;20052;-81
2022/11/07 07:50:34;;;;;;;19.98;6.88;;;10.70;99.90;;;;;;5057578;28;20066;-81
2022/11/07 07:52:59;;;;;;;16.60;6.53;;;10.70;99.90;;;;;;5074353;28;20416;-80
2022/11/07 07:55:25;;;;;;;17.50;6.85;;;10.80;99.90;;;;;;5074223;28;20412;-80
2022/11/07 07:57:51;;;;;;;15.17;5.80;;;10.80;99.90;;;;;;5074223;28;20047;-80
2022/11/07 08:00:17;;;;;;;14.77;6.60;;;10.80;99.90;;;;;;5074054;28;20041;-81
2022/11/07 08:02:43;;;;;;;14.98;5.95;;;10.80;99.90;;;;;;5057277;28;20116;-80
2022/11/07 08:05:13;;;;;;;15.38;6.05;;;10.80;99.90;;;;;;5057554;28;20517;-80
2022/11/07 08:07:49;;;;;;;14.93;7.20;;;10.80;99.90;;;;;;5057325;28;20058;-81
2022/11/07 08:10:16;;;;;;;19.57;6.80;;;10.80;99.90;;;;;;5074679;28;20516;-81
2022/11/07 08:12:47;;;;;;;13.88;5.85;;;10.80;99.90;;;;;;5074313;28;20181;-82
2022/11/07 08:15:14;;;;;;;11.52;5.68;;;10.90;99.90;;;;;;5074980;28;20051;-81
2022/11/07 08:17:40;;;;;;;25.05;7.43;;;10.90;99.90;;;;;;5041202;28;20446;-81
2022/11/07 08:20:08;;;;;;;19.33;7.28;;;11.00;99.90;;;;;;5074404;28;20144;-81
2022/11/07 08:22:35;;;;;;;18.40;6.78;;;11.00;99.90;;;;;;5077207;28;20048;-80
2022/11/07 08:25:00;;;;;;;;;;;11.00;99.90;;;;;;5077446;28;20036;-81
2022/11/07 08:27:26;;;;;;;14.70;6.88;;;11.10;99.90;;;;;;5059873;28;19916;-81
2022/11/07 08:29:52;;;;;;;16.00;7.20;;;11.10;99.90;;;;;;5060913;28;20075;-81
2022/11/07 08:32:17;;;;;;;14.85;6.43;;;11.10;99.90;;;;;;5079818;28;20052;-81
2022/11/07 08:34:43;;;;;;;22.83;7.82;;;11.20;99.90;;;;;;5045193;28;20547;-81
2022/11/07 08:37:09;;;;;;;18.73;7.40;;;11.10;99.90;;;;;;5076870;28;20044;-81
2022/11/07 08:39:34;;;;;;;21.37;8.13;;;11.10;99.90;;;;;;5079046;28;20283;-82
2022/11/07 08:42:00;;;;;;;19.98;7.60;;;11.20;99.90;;;;;;5077499;28;20040;-82
2022/11/07 08:44:26;;;;;;;17.52;6.70;;;11.20;99.90;;;;;;5078914;28;20040;-82
2022/11/07 08:46:51;;;;;;;21.35;9.15;;;11.20;99.90;;;;;;5082041;28;20063;-81
2022/11/07 08:49:17;;;;;;;15.57;6.93;;;11.20;99.90;;;;;;5064147;28;20052;-82
2022/11/07 08:51:43;;;;;;;15.03;6.63;;;11.20;99.90;;;;;;5085006;28;20110;-82
2022/11/07 08:54:11;;;;;;;18.93;6.50;;;11.20;99.90;;;;;;5082971;28;20291;-82
2022/11/07 08:56:36;;;;;;;21.10;7.30;;;11.30;99.90;;;;;;5082507;28;20314;-82
2022/11/07 08:59:02;;;;;;;11.00;5.67;;;11.30;99.90;;;;;;5063571;28;20407;-82
2022/11/07 09:01:28;;;;;;;17.40;6.82;;;11.40;99.90;;;;;;5063364;28;20500;-82
2022/11/07 09:03:53;;;;;;;13.20;4.90;;;11.30;99.90;;;;;;5027136;28;20072;-82
2022/11/07 09:06:20;;;;;;;16.73;6.17;;;11.40;99.90;;;;;;5058263;28;20044;-82
2022/11/07 09:08:45;;;;;;;10.75;5.13;;;11.40;99.90;;;;;;5058062;28;20282;-82
2022/11/07 09:11:14;;;;;;;15.45;5.45;;;11.50;99.90;;;;;;5077426;28;20040;-82
2022/11/07 09:13:42;;;;;;;14.70;6.10;;;11.50;99.90;;;;;;5074537;28;20405;-82
2022/11/07 09:16:10;;;;;;;12.80;5.00;;;11.50;99.90;;;;;;5061630;28;20037;-82
2022/11/07 09:18:35;;;;;;;13.00;5.38;;;11.70;99.90;;;;;;5076859;28;20044;-82
2022/11/07 09:21:01;;;;;;;12.07;4.93;;;11.70;99.90;;;;;;5076093;28;20036;-83
2022/11/07 09:23:27;;;;;;;11.02;4.45;;;11.70;99.90;;;;;;5061340;28;20758;-82
2022/11/07 09:25:53;;;;;;;15.83;4.87;;;10.70;99.90;;;;;;5061710;28;20123;-82
2022/11/07 09:28:18;;;;;;;10.50;4.07;;;11.80;99.90;;;;;;5029100;28;20028;-82
2022/11/07 09:30:44;;;;;;;16.75;5.53;;;11.80;99.90;;;;;;5077670;28;20032;-82
2022/11/07 09:33:10;;;;;;;16.17;4.00;;;11.80;99.90;;;;;;5059729;28;20051;-82
2022/11/07 09:35:36;;;;;;;12.98;3.90;;;11.80;99.90;;;;;;5061097;28;20098;-82
2022/11/07 09:38:01;;;;;;;13.38;4.32;;;11.90;99.90;;;;;;5060016;28;20101;-82
2022/11/07 09:40:50;;;;;;;10.20;4.38;;;12.00;99.90;;;;;;5078028;28;20048;-82
2022/11/07 09:43:21;;;;;;;15.77;4.93;;;12.00;99.90;;;;;;5080079;28;20058;-82
2022/11/07 09:46:06;;;;;;;16.42;4.95;;;12.10;99.90;;;;;;5078727;28;20075;-81
2022/11/07 09:48:41;;;;;;;15.20;5.28;;;12.00;99.90;;;;;;5077229;28;20048;-82
2022/11/07 09:51:14;;;;;;;12.95;4.43;;;12.00;99.90;;;;;;5076300;28;20047;-82
2022/11/07 09:53:49;;;;;;;14.93;4.88;;;12.00;99.90;;;;;;5073362;28;20036;-82
2022/11/07 09:56:15;;;;;;;10.75;4.25;;;12.10;99.90;;;;;;5078342;28;20074;-82
2022/11/07 09:58:50;;;;;;;11.32;4.05;;;12.10;99.90;;;;;;5081462;28;20080;-83
2022/11/07 10:01:18;;;;;;;16.23;4.43;;;12.20;99.90;;;;;;5060422;28;20033;-82
2022/11/07 10:03:44;;;;;;;8.98;3.17;;;12.20;99.90;;;;;;5077153;28;20051;-83
2022/11/07 10:06:28;;;;;;;12.68;4.60;;;12.20;99.90;;;;;;5059389;28;20040;-83
2022/11/07 10:09:06;;;;;;;10.52;4.18;;;12.20;99.90;;;;;;5059654;28;20041;-82
2022/11/07 10:11:52;;;;;;;10.88;4.43;;;12.20;99.90;;;;;;5076890;28;20040;-83
2022/11/07 10:14:26;;;;;;;11.75;4.20;;;11.20;99.90;;;;;;5074274;28;20032;-82
2022/11/07 10:17:19;;;;;;;18.13;4.22;;;12.20;99.90;;;;;;5077292;28;20115;-83
2022/11/07 10:20:03;;;;;;;9.35;3.67;;;12.30;99.90;;;;;;5077524;28;20036;-83
2022/11/07 10:22:57;;;;;;;12.63;4.25;;;12.30;99.90;;;;;;5078507;28;20052;-83
2022/11/07 10:25:44;;;;;;;14.02;4.10;;;12.30;99.90;;;;;;5062040;28;20041;-83
2022/11/07 10:28:16;;;;;;;7.45;3.58;;;12.30;99.90;;;;;;5074333;28;20076;-83
2022/11/07 10:30:47;;;;;;;9.85;3.25;;;12.40;99.90;;;;;;5079164;28;20048;-82
2022/11/07 10:33:31;;;;;;;10.05;3.42;;;12.40;99.90;;;;;;5079652;28;20056;-83
2022/11/07 10:36:28;;;;;;;6.75;3.28;;;12.50;99.90;;;;;;5063228;28;20479;-83
2022/11/07 10:38:54;;;;;;;12.53;3.20;;;12.50;99.90;;;;;;5079970;28;20051;-83
2022/11/07 10:41:23;;;;;;;9.68;3.10;;;12.60;99.90;;;;;;5063154;28;20414;-83
2022/11/07 10:43:55;;;;;;;13.50;3.72;;;12.60;99.90;;;;;;5063125;28;20119;-83
2022/11/07 10:46:30;;;;;;;11.20;3.25;;;12.60;99.90;;;;;;5077847;28;20449;-83
2022/11/07 10:49:00;;;;;;;9.93;3.55;;;12.60;99.90;;;;;;5075425;28;20381;-82
2022/11/07 10:51:42;;;;;;;12.73;3.30;;;12.70;99.90;;;;;;5080954;28;20123;-82
2022/11/07 10:54:23;;;;;;;12.95;3.30;;;12.80;99.90;;;;;;5079329;28;20038;-82
2022/11/07 10:57:02;;;;;;;9.80;2.97;;;12.90;99.90;;;;;;5079281;28;20044;-82
2022/11/07 10:59:29;;;;;;;10.23;3.42;;;13.00;99.90;;;;;;5083925;28;20392;-83
2022/11/07 11:01:57;;;;;;;11.85;3.40;;;13.10;99.90;;;;;;5069128;28;20444;-82
2022/11/07 11:04:31;;;;;;;9.65;3.75;;;13.00;99.90;;;;;;5083191;28;20064;-83
2022/11/07 11:07:02;;;;;;;13.18;3.95;;;12.90;99.90;;;;;;5081578;28;20040;-82
2022/11/07 11:09:34;;;;;;;10.75;3.55;;;12.80;99.90;;;;;;5065742;28;20066;-82
2022/11/07 11:12:12;;;;;;;10.10;3.15;;;12.80;99.90;;;;;;5080587;28;20028;-83
2022/11/07 11:14:38;;;;;;;8.48;2.92;;;12.90;99.90;;;;;;5062775;28;20090;-82
2022/11/07 11:17:04;;;;;;;10.68;3.60;;;12.90;99.90;;;;;;5067183;28;20123;-83
2022/11/07 11:19:46;;;;;;;15.52;3.75;;;12.90;99.90;;;;;;5063331;28;20039;-83
2022/11/07 11:22:17;;;;;;;7.00;2.85;;;13.00;99.90;;;;;;5078815;28;20045;-83
2022/11/07 11:24:43;;;;;;;9.38;3.70;;;13.00;99.90;;;;;;5080866;28;20037;-83
2022/11/07 11:27:21;;;;;;;12.55;3.60;;;13.10;99.90;;;;;;5083989;28;20047;-83
2022/11/07 11:30:16;;;;;;;9.43;3.42;;;13.00;99.90;;;;;;5065222;28;20040;-82
2022/11/07 11:32:49;;;;;;;10.02;3.00;;;12.90;99.90;;;;;;5078722;28;20516;-84
2022/11/07 11:35:32;;;;;;;10.13;3.30;;;13.00;99.90;;;;;;5062196;28;20040;-82
2022/11/07 11:38:22;;;;;;;12.40;3.38;;;13.00;99.90;;;;;;5043491;28;20045;-82
2022/11/07 11:40:53;;;;;;;12.02;3.83;;;13.00;99.90;;;;;;5062986;28;20041;-83
2022/11/07 11:43:21;;;;;;;11.35;3.85;;;13.00;99.90;;;;;;5057766;28;20041;-84
2022/11/07 11:46:05;;;;;;;11.75;3.97;;;13.10;99.90;;;;;;5058095;28;20040;-83
2022/11/07 11:48:45;;;;;;;15.13;3.60;;;13.10;99.90;;;;;;5075590;28;20492;-83
2022/11/07 11:51:17;;;;;;;13.13;3.90;;;13.10;99.90;;;;;;5074164;28;20036;-83
2022/11/07 11:53:43;;;;;;;8.80;3.53;;;13.20;99.90;;;;;;5058935;28;20037;-84
2022/11/07 11:56:22;;;;;;;11.63;3.93;;;13.20;99.90;;;;;;5062143;28;20047;-84
2022/11/07 11:59:00;;;;;;;13.52;3.60;;;13.20;99.90;;;;;;5077978;28;20279;-84
2022/11/07 12:01:32;;;;;;;12.13;3.72;;;13.40;99.90;;;;;;5077012;28;20043;-84
2022/11/07 12:04:23;;;;;;;10.35;3.45;;;13.60;99.90;;;;;;5059576;28;20040;-83
2022/11/07 12:06:52;;;;;;;14.77;3.63;;;13.70;99.90;;;;;;5060098;28;20099;-83
2022/11/07 12:09:28;;;;;;;13.45;3.63;;;13.90;99.90;;;;;;5060218;28;20041;-83
2022/11/07 12:12:15;;;;;;;13.50;3.92;;;14.00;99.90;;;;;;5059224;28;20488;-83
2022/11/07 12:14:50;;;;;;;11.57;3.07;;;14.30;99.90;;;;;;5064811;28;20040;-84
2022/11/07 12:17:38;;;;;;;10.45;3.42;;;14.40;99.90;;;;;;5075341;28;20298;-83
2022/11/07 12:20:21;;;;;;;8.20;3.33;;;14.20;99.90;;;;;;5058653;28;20139;-84
2022/11/07 12:23:03;;;;;;;11.82;3.58;;;14.20;99.90;;;;;;5067890;28;20036;-83
2022/11/07 12:25:34;;;;;;;11.02;3.08;;;14.00;99.90;;;;;;5074123;28;20493;-83
2022/11/07 12:28:11;;;;;;;11.32;3.28;;;14.00;99.90;;;;;;5059218;28;20044;-83
2022/11/07 12:31:05;;;;;;;7.57;3.05;;;14.00;99.90;;;;;;5072085;28;20048;-83
2022/11/07 12:33:56;;;;;;;8.38;3.33;;;13.90;99.90;;;;;;5056056;28;20151;-83
2022/11/07 12:36:51;;;;;;;9.18;3.03;;;14.00;99.90;;;;;;5076041;28;20033;-83
2022/11/07 12:39:34;;;;;;;9.52;3.25;;;14.10;99.90;;;;;;5062858;28;20064;-83
2022/11/07 12:42:16;;;;;;;8.00;2.92;;;14.40;99.90;;;;;;5058351;28;20029;-83
2022/11/07 12:45:13;;;;;;;8.65;3.20;;;14.50;99.90;;;;;;5058496;28;20036;-83
2022/11/07 12:48:17;;;;;;;8.65;2.55;;;14.50;99.90;;;;;;5046894;28;20094;-83
2022/11/07 12:51:09;;;;;;;5.78;2.30;;;14.50;99.90;;;;;;5053101;28;20066;-83
2022/11/07 12:53:53;;;;;;;6.63;2.60;;;14.40;99.90;;;;;;5073877;28;20369;-83
2022/11/07 12:56:24;;;;;;;8.93;2.50;;;14.50;99.90;;;;;;5057175;28;20040;-84
2022/11/07 12:58:51;;;;;;;8.50;2.78;;;14.50;99.90;;;;;;5056099;28;20036;-83
2022/11/07 13:01:22;;;;;;;8.45;2.40;;;14.50;99.90;;;;;;5072458;28;20029;-83
2022/11/07 13:04:13;;;;;;;7.55;2.28;;;14.60;99.90;;;;;;5055253;28;20169;-83